Terminal Aerodrome Forecast
Issued by NWS

Home | Current Version | Previous Version | Graphics & Text | Print | Product List | Glossary On
Versions: 1 2 3 4 5 6 7 8 9 10 11 12 13 14 15 16 17 18 19
000
FTUS43 KICT 282127 AAA
TAFCNU
TAF AMD
KCNU 282127Z 2821/0118 12008KT 3/4SM -SN BR OVC015
      TEMPO 2821/2824 1/2SM SN OVC007
     FM010000 13008KT 3SM -SN BR OVC015
     FM010300 VRB04KT P6SM OVC010
     FM011600 35008KT P6SM SCT010 BKN060=

USA.gov is the U.S. government's official web portal to all federal, state and local government web resources and services.